sensor_id;sensor_type;location;lat;lon;timestamp;P1;durP1;ratioP1;P2;durP2;ratioP2
54557;SDS011;40452;50.080;20.040;2023-04-16T03:58:50;11.00;;;6.75;;
54557;SDS011;40452;50.080;20.040;2023-04-16T04:01:15;12.93;;;6.78;;
54557;SDS011;40452;50.080;20.040;2023-04-16T04:03:41;13.90;;;6.55;;
54557;SDS011;40452;50.080;20.040;2023-04-16T04:06:07;11.80;;;7.15;;
54557;SDS011;40452;50.080;20.040;2023-04-16T04:08:32;9.98;;;6.47;;
54557;SDS011;40452;50.080;20.040;2023-04-16T04:10:58;10.02;;;6.60;;
54557;SDS011;40452;50.080;20.040;2023-04-16T04:13:23;11.02;;;6.20;;
54557;SDS011;40452;50.080;20.040;2023-04-16T04:15:49;10.57;;;6.35;;
54557;SDS011;40452;50.080;20.040;2023-04-16T04:18:15;9.43;;;6.28;;
54557;SDS011;40452;50.080;20.040;2023-04-16T04:20:40;8.55;;;6.15;;
54557;SDS011;40452;50.080;20.040;2023-04-16T04:23:06;9.85;;;6.25;;
54557;SDS011;40452;50.080;20.040;2023-04-16T04:25:31;8.02;;;5.78;;
54557;SDS011;40452;50.080;20.040;2023-04-16T04:27:57;9.23;;;6.22;;
54557;SDS011;40452;50.080;20.040;2023-04-16T04:30:22;14.68;;;6.05;;
54557;SDS011;40452;50.080;20.040;2023-04-16T04:32:48;9.68;;;5.97;;
54557;SDS011;40452;50.080;20.040;2023-04-16T04:35:13;9.40;;;5.93;;
54557;SDS011;40452;50.080;20.040;2023-04-16T04:37:39;9.75;;;5.82;;
54557;SDS011;40452;50.080;20.040;2023-04-16T04:40:05;8.32;;;5.63;;
54557;SDS011;40452;50.080;20.040;2023-04-16T04:42:31;12.30;;;6.22;;
54557;SDS011;40452;50.080;20.040;2023-04-16T04:44:56;10.48;;;6.32;;
54557;SDS011;40452;50.080;20.040;2023-04-16T04:47:43;9.73;;;6.00;;
54557;SDS011;40452;50.080;20.040;2023-04-16T04:50:11;13.60;;;5.97;;
54557;SDS011;40452;50.080;20.040;2023-04-16T04:52:37;13.77;;;6.35;;
54557;SDS011;40452;50.080;20.040;2023-04-16T04:55:19;15.52;;;6.03;;
54557;SDS011;40452;50.080;20.040;2023-04-16T04:57:50;10.50;;;6.55;;
54557;SDS011;40452;50.080;20.040;2023-04-16T05:00:16;9.43;;;6.28;;
54557;SDS011;40452;50.080;20.040;2023-04-16T05:02:41;11.57;;;6.30;;
54557;SDS011;40452;50.080;20.040;2023-04-16T05:05:07;13.80;;;6.03;;
54557;SDS011;40452;50.080;20.040;2023-04-16T05:07:33;11.68;;;6.22;;
54557;SDS011;40452;50.080;20.040;2023-04-16T05:10:02;9.23;;;6.13;;
54557;SDS011;40452;50.080;20.040;2023-04-16T05:12:29;10.93;;;6.47;;
54557;SDS011;40452;50.080;20.040;2023-04-16T05:15:10;9.90;;;6.18;;
54557;SDS011;40452;50.080;20.040;2023-04-16T05:17:38;10.50;;;6.55;;
54557;SDS011;40452;50.080;20.040;2023-04-16T05:20:21;10.98;;;6.40;;
54557;SDS011;40452;50.080;20.040;2023-04-16T05:22:50;10.45;;;6.38;;
54557;SDS011;40452;50.080;20.040;2023-04-16T05:25:16;10.38;;;6.45;;
54557;SDS011;40452;50.080;20.040;2023-04-16T05:27:48;11.77;;;6.63;;
54557;SDS011;40452;50.080;20.040;2023-04-16T05:30:13;13.82;;;7.03;;
54557;SDS011;40452;50.080;20.040;2023-04-16T05:32:39;16.52;;;7.72;;
54557;SDS011;40452;50.080;20.040;2023-04-16T05:35:07;17.02;;;8.10;;
54557;SDS011;40452;50.080;20.040;2023-04-16T05:37:43;15.00;;;7.53;;
54557;SDS011;40452;50.080;20.040;2023-04-16T05:40:12;16.15;;;7.35;;
54557;SDS011;40452;50.080;20.040;2023-04-16T05:42:43;16.35;;;7.20;;
54557;SDS011;40452;50.080;20.040;2023-04-16T05:45:12;17.98;;;8.40;;
54557;SDS011;40452;50.080;20.040;2023-04-16T05:47:41;12.65;;;7.22;;
54557;SDS011;40452;50.080;20.040;2023-04-16T05:50:06;16.05;;;7.60;;
54557;SDS011;40452;50.080;20.040;2023-04-16T05:52:38;17.05;;;7.55;;
54557;SDS011;40452;50.080;20.040;2023-04-16T05:55:04;17.02;;;7.20;;
54557;SDS011;40452;50.080;20.040;2023-04-16T05:57:30;16.23;;;7.53;;
54557;SDS011;40452;50.080;20.040;2023-04-16T05:59:59;15.82;;;6.97;;
54557;SDS011;40452;50.080;20.040;2023-04-16T06:02:28;16.27;;;7.07;;
54557;SDS011;40452;50.080;20.040;2023-04-16T06:04:55;18.77;;;7.65;;
54557;SDS011;40452;50.080;20.040;2023-04-16T06:07:20;14.00;;;6.90;;
54557;SDS011;40452;50.080;20.040;2023-04-16T06:09:48;16.13;;;7.22;;
54557;SDS011;40452;50.080;20.040;2023-04-16T06:12:14;13.95;;;6.63;;
54557;SDS011;40452;50.080;20.040;2023-04-16T06:14:43;12.00;;;6.65;;
54557;SDS011;40452;50.080;20.040;2023-04-16T06:17:08;13.57;;;6.63;;
54557;SDS011;40452;50.080;20.040;2023-04-16T06:19:39;12.27;;;6.28;;
54557;SDS011;40452;50.080;20.040;2023-04-16T06:22:06;11.95;;;6.20;;
54557;SDS011;40452;50.080;20.040;2023-04-16T06:24:31;15.10;;;8.23;;
54557;SDS011;40452;50.080;20.040;2023-04-16T06:26:57;13.38;;;7.85;;
54557;SDS011;40452;50.080;20.040;2023-04-16T06:29:22;13.98;;;8.15;;
54557;SDS011;40452;50.080;20.040;2023-04-16T06:31:48;13.98;;;7.68;;
54557;SDS011;40452;50.080;20.040;2023-04-16T06:34:14;16.05;;;7.68;;
54557;SDS011;40452;50.080;20.040;2023-04-16T06:36:47;14.65;;;8.15;;
54557;SDS011;40452;50.080;20.040;2023-04-16T06:39:15;13.23;;;7.90;;
54557;SDS011;40452;50.080;20.040;2023-04-16T06:41:44;14.77;;;7.97;;
54557;SDS011;40452;50.080;20.040;2023-04-16T06:44:09;11.65;;;7.80;;
54557;SDS011;40452;50.080;20.040;2023-04-16T06:46:38;15.60;;;7.65;;
54557;SDS011;40452;50.080;20.040;2023-04-16T06:49:04;12.32;;;7.78;;
54557;SDS011;40452;50.080;20.040;2023-04-16T06:51:39;11.75;;;7.40;;
54557;SDS011;40452;50.080;20.040;2023-04-16T06:54:05;14.75;;;8.38;;
54557;SDS011;40452;50.080;20.040;2023-04-16T06:56:36;15.43;;;7.68;;
54557;SDS011;40452;50.080;20.040;2023-04-16T06:59:15;13.98;;;7.38;;
54557;SDS011;40452;50.080;20.040;2023-04-16T07:01:41;16.15;;;8.23;;
54557;SDS011;40452;50.080;20.040;2023-04-16T07:04:08;19.73;;;7.32;;
54557;SDS011;40452;50.080;20.040;2023-04-16T07:06:36;12.90;;;7.47;;
54557;SDS011;40452;50.080;20.040;2023-04-16T07:09:07;11.27;;;7.03;;
54557;SDS011;40452;50.080;20.040;2023-04-16T07:11:33;13.88;;;7.82;;
54557;SDS011;40452;50.080;20.040;2023-04-16T07:14:02;12.07;;;7.10;;
54557;SDS011;40452;50.080;20.040;2023-04-16T07:16:30;11.80;;;6.78;;
54557;SDS011;40452;50.080;20.040;2023-04-16T07:18:56;11.40;;;7.05;;
54557;SDS011;40452;50.080;20.040;2023-04-16T07:21:24;12.30;;;6.70;;
54557;SDS011;40452;50.080;20.040;2023-04-16T07:23:50;13.80;;;7.18;;
54557;SDS011;40452;50.080;20.040;2023-04-16T07:26:15;10.50;;;6.90;;
54557;SDS011;40452;50.080;20.040;2023-04-16T07:28:41;12.43;;;7.07;;
54557;SDS011;40452;50.080;20.040;2023-04-16T07:31:15;14.98;;;6.50;;
54557;SDS011;40452;50.080;20.040;2023-04-16T07:33:41;10.25;;;6.80;;
54557;SDS011;40452;50.080;20.040;2023-04-16T07:36:09;10.02;;;6.25;;
54557;SDS011;40452;50.080;20.040;2023-04-16T07:38:35;11.63;;;6.95;;
54557;SDS011;40452;50.080;20.040;2023-04-16T07:41:00;10.40;;;6.65;;
54557;SDS011;40452;50.080;20.040;2023-04-16T07:43:29;10.88;;;6.55;;
54557;SDS011;40452;50.080;20.040;2023-04-16T07:45:57;9.93;;;6.57;;
54557;SDS011;40452;50.080;20.040;2023-04-16T07:48:29;9.60;;;6.13;;
54557;SDS011;40452;50.080;20.040;2023-04-16T07:51:00;12.30;;;6.90;;
54557;SDS011;40452;50.080;20.040;2023-04-16T07:53:27;12.38;;;7.50;;
54557;SDS011;40452;50.080;20.040;2023-04-16T07:55:52;10.40;;;7.28;;
54557;SDS011;40452;50.080;20.040;2023-04-16T07:58:18;12.85;;;7.30;;
54557;SDS011;40452;50.080;20.040;2023-04-16T08:00:43;12.15;;;7.03;;
54557;SDS011;40452;50.080;20.040;2023-04-16T08:03:12;11.32;;;7.55;;
54557;SDS011;40452;50.080;20.040;2023-04-16T08:05:39;12.48;;;7.57;;
54557;SDS011;40452;50.080;20.040;2023-04-16T08:08:05;12.88;;;7.18;;
54557;SDS011;40452;50.080;20.040;2023-04-16T08:10:37;11.38;;;7.00;;
54557;SDS011;40452;50.080;20.040;2023-04-16T08:13:08;11.90;;;7.40;;
54557;SDS011;40452;50.080;20.040;2023-04-16T08:18:07;13.20;;;7.03;;
54557;SDS011;40452;50.080;20.040;2023-04-16T08:20:37;11.60;;;7.10;;
54557;SDS011;40452;50.080;20.040;2023-04-16T08:23:05;9.90;;;6.82;;
54557;SDS011;40452;50.080;20.040;2023-04-16T08:25:34;9.73;;;6.18;;
54557;SDS011;40452;50.080;20.040;2023-04-16T08:28:00;12.50;;;6.38;;
54557;SDS011;40452;50.080;20.040;2023-04-16T08:30:32;9.52;;;5.90;;
54557;SDS011;40452;50.080;20.040;2023-04-16T08:32:57;9.50;;;6.50;;
54557;SDS011;40452;50.080;20.040;2023-04-16T08:35:23;9.13;;;5.78;;
54557;SDS011;40452;50.080;20.040;2023-04-16T08:37:49;12.82;;;6.00;;
54557;SDS011;40452;50.080;20.040;2023-04-16T08:40:15;12.82;;;6.38;;
54557;SDS011;40452;50.080;20.040;2023-04-16T08:42:48;8.75;;;5.53;;
54557;SDS011;40452;50.080;20.040;2023-04-16T08:45:17;11.45;;;5.97;;
54557;SDS011;40452;50.080;20.040;2023-04-16T08:47:46;10.70;;;5.93;;
54557;SDS011;40452;50.080;20.040;2023-04-16T08:50:13;8.50;;;5.38;;
54557;SDS011;40452;50.080;20.040;2023-04-16T08:52:49;8.38;;;5.35;;
54557;SDS011;40452;50.080;20.040;2023-04-16T08:55:49;11.30;;;5.72;;
54557;SDS011;40452;50.080;20.040;2023-04-16T08:58:17;10.73;;;5.50;;
54557;SDS011;40452;50.080;20.040;2023-04-16T09:00:44;10.02;;;5.18;;
54557;SDS011;40452;50.080;20.040;2023-04-16T09:03:16;9.25;;;5.88;;
54557;SDS011;40452;50.080;20.040;2023-04-16T09:05:48;8.43;;;5.00;;
54557;SDS011;40452;50.080;20.040;2023-04-16T09:08:23;9.80;;;5.28;;
54557;SDS011;40452;50.080;20.040;2023-04-16T09:10:59;10.07;;;5.28;;
54557;SDS011;40452;50.080;20.040;2023-04-16T09:13:24;7.97;;;5.25;;
54557;SDS011;40452;50.080;20.040;2023-04-16T09:15:53;7.25;;;4.97;;
54557;SDS011;40452;50.080;20.040;2023-04-16T09:18:24;9.63;;;5.45;;
54557;SDS011;40452;50.080;20.040;2023-04-16T09:20:50;10.88;;;7.18;;
54557;SDS011;40452;50.080;20.040;2023-04-16T09:23:16;11.35;;;6.78;;
54557;SDS011;40452;50.080;20.040;2023-04-16T09:25:47;15.27;;;8.57;;
54557;SDS011;40452;50.080;20.040;2023-04-16T09:28:37;20.95;;;8.07;;
54557;SDS011;40452;50.080;20.040;2023-04-16T09:33:38;15.13;;;8.50;;
54557;SDS011;40452;50.080;20.040;2023-04-16T09:36:04;14.95;;;9.00;;
54557;SDS011;40452;50.080;20.040;2023-04-16T09:38:50;13.18;;;8.75;;
54557;SDS011;40452;50.080;20.040;2023-04-16T09:41:23;13.05;;;8.43;;
54557;SDS011;40452;50.080;20.040;2023-04-16T09:44:01;14.30;;;8.90;;
54557;SDS011;40452;50.080;20.040;2023-04-16T09:46:29;11.40;;;8.48;;
54557;SDS011;40452;50.080;20.040;2023-04-16T09:49:14;13.50;;;8.05;;
54557;SDS011;40452;50.080;20.040;2023-04-16T09:51:45;14.32;;;8.88;;
54557;SDS011;40452;50.080;20.040;2023-04-16T09:54:13;14.38;;;8.82;;
54557;SDS011;40452;50.080;20.040;2023-04-16T09:56:40;13.70;;;9.13;;
54557;SDS011;40452;50.080;20.040;2023-04-16T09:59:07;13.75;;;7.68;;
54557;SDS011;40452;50.080;20.040;2023-04-16T10:01:41;12.60;;;8.30;;
54557;SDS011;40452;50.080;20.040;2023-04-16T10:04:07;15.63;;;8.65;;
54557;SDS011;40452;50.080;20.040;2023-04-16T10:06:32;15.75;;;8.55;;
54557;SDS011;40452;50.080;20.040;2023-04-16T10:08:58;13.32;;;8.85;;
54557;SDS011;40452;50.080;20.040;2023-04-16T10:11:23;13.70;;;8.43;;
54557;SDS011;40452;50.080;20.040;2023-04-16T10:13:51;12.27;;;8.45;;
54557;SDS011;40452;50.080;20.040;2023-04-16T10:16:16;13.90;;;8.57;;
54557;SDS011;40452;50.080;20.040;2023-04-16T10:18:44;13.48;;;8.20;;
54557;SDS011;40452;50.080;20.040;2023-04-16T10:21:10;13.95;;;7.88;;
54557;SDS011;40452;50.080;20.040;2023-04-16T10:23:39;12.90;;;8.23;;
54557;SDS011;40452;50.080;20.040;2023-04-16T10:26:05;13.50;;;8.40;;
54557;SDS011;40452;50.080;20.040;2023-04-16T10:28:31;16.38;;;8.43;;
54557;SDS011;40452;50.080;20.040;2023-04-16T10:30:59;13.35;;;8.77;;
54557;SDS011;40452;50.080;20.040;2023-04-16T10:33:27;15.07;;;8.93;;
54557;SDS011;40452;50.080;20.040;2023-04-16T10:38:40;21.20;;;11.75;;
54557;SDS011;40452;50.080;20.040;2023-04-16T10:41:10;22.70;;;12.43;;
54557;SDS011;40452;50.080;20.040;2023-04-16T10:43:39;33.35;;;18.48;;
54557;SDS011;40452;50.080;20.040;2023-04-16T10:46:17;42.28;;;22.25;;
54557;SDS011;40452;50.080;20.040;2023-04-16T10:48:43;47.38;;;29.33;;
54557;SDS011;40452;50.080;20.040;2023-04-16T10:51:21;52.22;;;29.13;;
54557;SDS011;40452;50.080;20.040;2023-04-16T10:53:48;48.75;;;26.75;;
54557;SDS011;40452;50.080;20.040;2023-04-16T10:56:16;43.53;;;25.23;;
54557;SDS011;40452;50.080;20.040;2023-04-16T10:58:47;40.33;;;23.83;;
54557;SDS011;40452;50.080;20.040;2023-04-16T11:01:13;43.70;;;22.65;;
54557;SDS011;40452;50.080;20.040;2023-04-16T11:03:43;42.55;;;22.27;;
54557;SDS011;40452;50.080;20.040;2023-04-16T11:06:14;42.38;;;19.65;;
54557;SDS011;40452;50.080;20.040;2023-04-16T11:08:44;42.42;;;19.08;;
54557;SDS011;40452;50.080;20.040;2023-04-16T11:11:10;34.00;;;18.38;;
54557;SDS011;40452;50.080;20.040;2023-04-16T11:13:36;33.08;;;17.60;;
54557;SDS011;40452;50.080;20.040;2023-04-16T11:16:03;25.90;;;15.85;;
54557;SDS011;40452;50.080;20.040;2023-04-16T11:18:29;27.23;;;16.00;;
54557;SDS011;40452;50.080;20.040;2023-04-16T11:20:55;26.77;;;15.40;;
54557;SDS011;40452;50.080;20.040;2023-04-16T11:23:21;24.58;;;15.27;;
54557;SDS011;40452;50.080;20.040;2023-04-16T11:25:46;24.25;;;14.52;;
54557;SDS011;40452;50.080;20.040;2023-04-16T11:28:12;20.50;;;12.90;;
54557;SDS011;40452;50.080;20.040;2023-04-16T11:30:38;22.35;;;13.68;;
54557;SDS011;40452;50.080;20.040;2023-04-16T11:33:04;22.98;;;12.00;;
54557;SDS011;40452;50.080;20.040;2023-04-16T11:35:32;22.83;;;12.50;;
54557;SDS011;40452;50.080;20.040;2023-04-16T11:37:57;21.33;;;12.40;;
54557;SDS011;40452;50.080;20.040;2023-04-16T11:40:23;21.30;;;11.95;;
54557;SDS011;40452;50.080;20.040;2023-04-16T11:42:49;19.58;;;11.63;;
54557;SDS011;40452;50.080;20.040;2023-04-16T11:45:15;20.25;;;10.98;;
54557;SDS011;40452;50.080;20.040;2023-04-16T11:47:44;19.27;;;11.38;;
54557;SDS011;40452;50.080;20.040;2023-04-16T11:50:15;23.98;;;11.40;;
54557;SDS011;40452;50.080;20.040;2023-04-16T11:52:40;16.70;;;9.82;;
54557;SDS011;40452;50.080;20.040;2023-04-16T11:55:06;16.33;;;10.07;;
54557;SDS011;40452;50.080;20.040;2023-04-16T11:57:32;21.75;;;10.93;;
54557;SDS011;40452;50.080;20.040;2023-04-16T11:59:58;16.40;;;10.02;;
54557;SDS011;40452;50.080;20.040;2023-04-16T12:05:26;14.52;;;9.45;;
54557;SDS011;40452;50.080;20.040;2023-04-16T12:07:58;18.45;;;9.50;;
54557;SDS011;40452;50.080;20.040;2023-04-16T12:10:25;14.40;;;9.38;;
54557;SDS011;40452;50.080;20.040;2023-04-16T12:12:51;14.43;;;8.70;;
54557;SDS011;40452;50.080;20.040;2023-04-16T12:15:17;15.85;;;8.95;;
54557;SDS011;40452;50.080;20.040;2023-04-16T12:17:42;13.98;;;8.85;;
54557;SDS011;40452;50.080;20.040;2023-04-16T12:22:35;15.50;;;9.18;;
54557;SDS011;40452;50.080;20.040;2023-04-16T12:25:13;13.15;;;8.52;;
54557;SDS011;40452;50.080;20.040;2023-04-16T12:27:46;15.93;;;8.85;;
54557;SDS011;40452;50.080;20.040;2023-04-16T12:30:12;17.25;;;8.93;;
54557;SDS011;40452;50.080;20.040;2023-04-16T12:32:40;14.13;;;8.63;;
54557;SDS011;40452;50.080;20.040;2023-04-16T12:35:07;18.00;;;8.68;;
54557;SDS011;40452;50.080;20.040;2023-04-16T12:37:33;15.45;;;8.50;;
54557;SDS011;40452;50.080;20.040;2023-04-16T12:39:59;14.82;;;7.82;;
54557;SDS011;40452;50.080;20.040;2023-04-16T12:42:25;12.45;;;7.65;;
54557;SDS011;40452;50.080;20.040;2023-04-16T12:44:51;13.63;;;7.75;;
54557;SDS011;40452;50.080;20.040;2023-04-16T12:47:17;13.35;;;8.07;;
54557;SDS011;40452;50.080;20.040;2023-04-16T12:49:45;13.38;;;7.88;;
54557;SDS011;40452;50.080;20.040;2023-04-16T12:52:10;14.13;;;7.28;;
54557;SDS011;40452;50.080;20.040;2023-04-16T12:54:36;12.70;;;7.30;;
54557;SDS011;40452;50.080;20.040;2023-04-16T12:57:02;15.80;;;6.95;;
54557;SDS011;40452;50.080;20.040;2023-04-16T12:59:27;13.48;;;7.35;;
54557;SDS011;40452;50.080;20.040;2023-04-16T13:01:53;12.85;;;7.30;;
54557;SDS011;40452;50.080;20.040;2023-04-16T13:04:18;11.73;;;6.93;;
54557;SDS011;40452;50.080;20.040;2023-04-16T13:06:44;12.32;;;7.28;;
54557;SDS011;40452;50.080;20.040;2023-04-16T13:09:10;13.13;;;7.07;;
54557;SDS011;40452;50.080;20.040;2023-04-16T13:11:35;11.90;;;6.75;;
54557;SDS011;40452;50.080;20.040;2023-04-16T13:14:01;11.48;;;6.55;;
54557;SDS011;40452;50.080;20.040;2023-04-16T13:16:26;10.85;;;6.78;;
54557;SDS011;40452;50.080;20.040;2023-04-16T13:18:52;8.68;;;6.00;;
54557;SDS011;40452;50.080;20.040;2023-04-16T13:21:18;12.88;;;6.65;;
54557;SDS011;40452;50.080;20.040;2023-04-16T13:23:43;10.07;;;6.72;;
54557;SDS011;40452;50.080;20.040;2023-04-16T13:26:09;11.80;;;6.55;;
54557;SDS011;40452;50.080;20.040;2023-04-16T13:28:36;9.95;;;6.00;;
54557;SDS011;40452;50.080;20.040;2023-04-16T13:31:02;9.80;;;6.10;;
54557;SDS011;40452;50.080;20.040;2023-04-16T13:33:28;11.82;;;6.55;;
54557;SDS011;40452;50.080;20.040;2023-04-16T13:35:53;10.68;;;6.13;;
54557;SDS011;40452;50.080;20.040;2023-04-16T13:38:19;7.47;;;3.25;;
54557;SDS011;40452;50.080;20.040;2023-04-16T13:40:45;13.75;;;4.50;;
54557;SDS011;40452;50.080;20.040;2023-04-16T13:43:10;9.27;;;4.63;;
54557;SDS011;40452;50.080;20.040;2023-04-16T13:45:37;7.88;;;3.67;;
54557;SDS011;40452;50.080;20.040;2023-04-16T13:48:03;5.10;;;3.40;;
54557;SDS011;40452;50.080;20.040;2023-04-16T13:50:29;18.48;;;3.65;;
54557;SDS011;40452;50.080;20.040;2023-04-16T13:52:54;10.43;;;3.20;;
54557;SDS011;40452;50.080;20.040;2023-04-16T13:55:20;7.60;;;2.67;;
54557;SDS011;40452;50.080;20.040;2023-04-16T13:57:46;14.77;;;2.70;;
54557;SDS011;40452;50.080;20.040;2023-04-16T14:00:13;4.22;;;2.03;;
54557;SDS011;40452;50.080;20.040;2023-04-16T14:02:42;5.57;;;2.08;;
54557;SDS011;40452;50.080;20.040;2023-04-16T14:05:10;9.20;;;2.40;;
54557;SDS011;40452;50.080;20.040;2023-04-16T14:07:36;4.47;;;2.05;;
54557;SDS011;40452;50.080;20.040;2023-04-16T14:10:01;4.35;;;2.00;;
54557;SDS011;40452;50.080;20.040;2023-04-16T14:12:27;2.88;;;1.80;;
54557;SDS011;40452;50.080;20.040;2023-04-16T14:14:52;2.75;;;1.80;;
54557;SDS011;40452;50.080;20.040;2023-04-16T14:17:18;5.20;;;2.08;;
54557;SDS011;40452;50.080;20.040;2023-04-16T14:19:43;4.15;;;2.00;;
54557;SDS011;40452;50.080;20.040;2023-04-16T14:22:09;3.33;;;2.00;;
54557;SDS011;40452;50.080;20.040;2023-04-16T14:24:35;2.83;;;1.77;;
54557;SDS011;40452;50.080;20.040;2023-04-16T14:27:00;4.13;;;1.73;;
54557;SDS011;40452;50.080;20.040;2023-04-16T14:29:26;2.15;;;1.60;;
54557;SDS011;40452;50.080;20.040;2023-04-16T14:31:52;2.17;;;1.52;;
54557;SDS011;40452;50.080;20.040;2023-04-16T14:34:17;2.80;;;1.60;;
54557;SDS011;40452;50.080;20.040;2023-04-16T14:36:43;6.47;;;1.90;;
54557;SDS011;40452;50.080;20.040;2023-04-16T14:39:09;2.50;;;1.63;;
54557;SDS011;40452;50.080;20.040;2023-04-16T14:41:35;3.08;;;1.90;;
54557;SDS011;40452;50.080;20.040;2023-04-16T14:44:00;3.13;;;1.70;;
54557;SDS011;40452;50.080;20.040;2023-04-16T14:46:29;2.30;;;1.60;;
54557;SDS011;40452;50.080;20.040;2023-04-16T14:48:57;2.85;;;1.80;;
54557;SDS011;40452;50.080;20.040;2023-04-16T14:51:25;6.53;;;2.17;;
54557;SDS011;40452;50.080;20.040;2023-04-16T14:53:51;3.05;;;2.00;;
54557;SDS011;40452;50.080;20.040;2023-04-16T14:56:17;5.18;;;1.92;;
54557;SDS011;40452;50.080;20.040;2023-04-16T14:58:42;4.75;;;1.73;;
54557;SDS011;40452;50.080;20.040;2023-04-16T15:01:08;3.00;;;2.25;;
54557;SDS011;40452;50.080;20.040;2023-04-16T15:03:34;3.30;;;2.08;;
54557;SDS011;40452;50.080;20.040;2023-04-16T15:06:00;3.70;;;2.38;;
54557;SDS011;40452;50.080;20.040;2023-04-16T15:08:25;3.35;;;2.20;;
54557;SDS011;40452;50.080;20.040;2023-04-16T15:10:56;4.70;;;2.05;;
54557;SDS011;40452;50.080;20.040;2023-04-16T15:13:24;3.37;;;1.97;;
54557;SDS011;40452;50.080;20.040;2023-04-16T15:15:49;2.88;;;1.83;;
54557;SDS011;40452;50.080;20.040;2023-04-16T15:18:15;3.03;;;2.30;;
54557;SDS011;40452;50.080;20.040;2023-04-16T15:20:40;3.47;;;2.25;;
54557;SDS011;40452;50.080;20.040;2023-04-16T15:23:09;3.25;;;2.00;;
54557;SDS011;40452;50.080;20.040;2023-04-16T15:25:34;3.38;;;2.20;;
54557;SDS011;40452;50.080;20.040;2023-04-16T15:28:00;4.07;;;2.33;;
54557;SDS011;40452;50.080;20.040;2023-04-16T15:30:29;4.00;;;2.45;;
54557;SDS011;40452;50.080;20.040;2023-04-16T15:32:55;4.00;;;2.60;;
54557;SDS011;40452;50.080;20.040;2023-04-16T15:35:20;3.58;;;2.45;;
54557;SDS011;40452;50.080;20.040;2023-04-16T15:37:46;3.00;;;2.10;;
54557;SDS011;40452;50.080;20.040;2023-04-16T15:40:11;3.47;;;2.05;;
54557;SDS011;40452;50.080;20.040;2023-04-16T15:42:37;3.53;;;2.20;;
54557;SDS011;40452;50.080;20.040;2023-04-16T15:45:03;3.78;;;2.17;;
54557;SDS011;40452;50.080;20.040;2023-04-16T15:47:29;3.35;;;2.17;;
54557;SDS011;40452;50.080;20.040;2023-04-16T15:49:54;2.97;;;2.10;;
54557;SDS011;40452;50.080;20.040;2023-04-16T15:52:20;3.78;;;2.40;;
54557;SDS011;40452;50.080;20.040;2023-04-16T15:54:45;2.80;;;2.05;;
54557;SDS011;40452;50.080;20.040;2023-04-16T15:57:11;4.07;;;2.35;;
54557;SDS011;40452;50.080;20.040;2023-04-16T15:59:36;4.03;;;2.33;;
54557;SDS011;40452;50.080;20.040;2023-04-16T16:02:02;5.22;;;2.75;;
54557;SDS011;40452;50.080;20.040;2023-04-16T16:04:27;4.97;;;2.70;;
54557;SDS011;40452;50.080;20.040;2023-04-16T16:06:53;6.75;;;2.97;;
54557;SDS011;40452;50.080;20.040;2023-04-16T16:09:18;7.35;;;3.00;;
54557;SDS011;40452;50.080;20.040;2023-04-16T16:14:17;5.28;;;2.95;;
54557;SDS011;40452;50.080;20.040;2023-04-16T16:16:43;5.93;;;3.40;;
54557;SDS011;40452;50.080;20.040;2023-04-16T16:19:09;6.88;;;3.17;;
54557;SDS011;40452;50.080;20.040;2023-04-16T16:21:35;6.95;;;2.95;;
54557;SDS011;40452;50.080;20.040;2023-04-16T16:24:00;6.50;;;2.95;;
54557;SDS011;40452;50.080;20.040;2023-04-16T16:26:26;4.82;;;3.10;;
54557;SDS011;40452;50.080;20.040;2023-04-16T16:28:52;5.57;;;2.85;;
54557;SDS011;40452;50.080;20.040;2023-04-16T16:31:17;5.80;;;3.35;;
54557;SDS011;40452;50.080;20.040;2023-04-16T16:33:43;5.30;;;2.70;;
54557;SDS011;40452;50.080;20.040;2023-04-16T16:36:09;5.53;;;3.10;;
54557;SDS011;40452;50.080;20.040;2023-04-16T16:38:35;4.18;;;2.72;;
54557;SDS011;40452;50.080;20.040;2023-04-16T16:41:01;7.28;;;2.92;;
54557;SDS011;40452;50.080;20.040;2023-04-16T16:43:26;7.28;;;3.30;;
54557;SDS011;40452;50.080;20.040;2023-04-16T16:45:52;6.57;;;3.25;;
54557;SDS011;40452;50.080;20.040;2023-04-16T16:48:18;5.65;;;3.22;;
54557;SDS011;40452;50.080;20.040;2023-04-16T16:50:44;6.63;;;3.17;;
54557;SDS011;40452;50.080;20.040;2023-04-16T16:53:09;4.75;;;3.13;;
54557;SDS011;40452;50.080;20.040;2023-04-16T16:55:35;6.35;;;3.33;;
54557;SDS011;40452;50.080;20.040;2023-04-16T16:58:01;10.20;;;4.05;;
54557;SDS011;40452;50.080;20.040;2023-04-16T17:00:27;11.35;;;3.70;;
54557;SDS011;40452;50.080;20.040;2023-04-16T17:02:52;8.43;;;4.03;;
54557;SDS011;40452;50.080;20.040;2023-04-16T17:05:18;10.95;;;3.80;;
54557;SDS011;40452;50.080;20.040;2023-04-16T17:07:43;6.43;;;3.60;;
54557;SDS011;40452;50.080;20.040;2023-04-16T17:10:10;9.30;;;4.10;;
54557;SDS011;40452;50.080;20.040;2023-04-16T17:12:37;13.70;;;3.80;;
54557;SDS011;40452;50.080;20.040;2023-04-16T17:15:05;8.93;;;4.03;;
54557;SDS011;40452;50.080;20.040;2023-04-16T17:17:31;8.73;;;4.13;;
54557;SDS011;40452;50.080;20.040;2023-04-16T17:19:57;7.47;;;4.00;;
54557;SDS011;40452;50.080;20.040;2023-04-16T17:22:24;10.88;;;4.35;;
54557;SDS011;40452;50.080;20.040;2023-04-16T17:24:50;12.35;;;4.05;;
54557;SDS011;40452;50.080;20.040;2023-04-16T17:27:15;10.90;;;3.95;;
54557;SDS011;40452;50.080;20.040;2023-04-16T17:29:41;7.57;;;3.83;;
54557;SDS011;40452;50.080;20.040;2023-04-16T17:32:07;7.38;;;4.00;;
54557;SDS011;40452;50.080;20.040;2023-04-16T17:34:32;8.63;;;4.25;;
54557;SDS011;40452;50.080;20.040;2023-04-16T17:36:58;10.10;;;4.40;;
54557;SDS011;40452;50.080;20.040;2023-04-16T17:39:24;9.13;;;4.32;;
54557;SDS011;40452;50.080;20.040;2023-04-16T17:41:49;7.97;;;4.05;;
54557;SDS011;40452;50.080;20.040;2023-04-16T17:44:18;7.78;;;4.10;;
54557;SDS011;40452;50.080;20.040;2023-04-16T17:46:44;11.55;;;4.13;;
54557;SDS011;40452;50.080;20.040;2023-04-16T17:49:09;6.50;;;4.10;;
54557;SDS011;40452;50.080;20.040;2023-04-16T17:51:36;6.15;;;3.80;;
54557;SDS011;40452;50.080;20.040;2023-04-16T17:54:01;7.18;;;4.20;;
54557;SDS011;40452;50.080;20.040;2023-04-16T17:56:27;5.90;;;3.80;;
54557;SDS011;40452;50.080;20.040;2023-04-16T17:58:53;8.57;;;4.15;;
54557;SDS011;40452;50.080;20.040;2023-04-16T18:01:18;9.00;;;4.10;;
54557;SDS011;40452;50.080;20.040;2023-04-16T18:03:44;8.20;;;3.65;;
54557;SDS011;40452;50.080;20.040;2023-04-16T18:06:09;11.30;;;3.83;;
54557;SDS011;40452;50.080;20.040;2023-04-16T18:08:35;6.72;;;3.90;;
54557;SDS011;40452;50.080;20.040;2023-04-16T18:11:04;7.45;;;3.80;;
54557;SDS011;40452;50.080;20.040;2023-04-16T18:13:31;9.25;;;4.32;;
54557;SDS011;40452;50.080;20.040;2023-04-16T18:15:57;6.22;;;3.80;;
54557;SDS011;40452;50.080;20.040;2023-04-16T18:18:22;5.82;;;3.88;;
54557;SDS011;40452;50.080;20.040;2023-04-16T18:20:48;6.53;;;4.18;;
54557;SDS011;40452;50.080;20.040;2023-04-16T18:23:13;10.77;;;4.30;;
54557;SDS011;40452;50.080;20.040;2023-04-16T18:25:39;8.93;;;3.78;;
54557;SDS011;40452;50.080;20.040;2023-04-16T18:28:04;7.43;;;4.05;;
54557;SDS011;40452;50.080;20.040;2023-04-16T18:30:30;7.28;;;3.80;;
54557;SDS011;40452;50.080;20.040;2023-04-16T18:32:56;5.88;;;3.55;;
54557;SDS011;40452;50.080;20.040;2023-04-16T18:35:21;6.65;;;3.72;;
54557;SDS011;40452;50.080;20.040;2023-04-16T18:37:47;9.32;;;4.03;;
54557;SDS011;40452;50.080;20.040;2023-04-16T18:40:12;5.47;;;3.70;;